Time;durP1;ratioP1;P1;durP2;ratioP2;P2;SDS_P1;SDS_P2;PMS_P1;PMS_P2;Temp;Humidity;BMP_temperature;BMP_pressure;BME280_temperature;BME280_humidity;BME280_pressure;Samples;Min_cycle;Max_cycle;Signal;HPM_P1;HPM_P2
2022/01/19 00:00:00;;;;;;;8.05;1.75;;;11.60;62.20;;;;;;20642001;28;20054;-79
2022/01/19 00:10:04;;;;;;;6.43;1.63;;;11.70;62.30;;;;;;20640863;28;20034;-78
2022/01/19 00:20:07;;;;;;;5.97;1.80;;;11.60;62.20;;;;;;20657039;28;20035;-78
2022/01/19 00:30:08;;;;;;;4.68;1.90;;;11.60;62.30;;;;;;20640707;28;20035;-77
2022/01/19 00:40:10;;;;;;;3.45;2.03;;;11.60;62.30;;;;;;20655888;28;20053;-78
2022/01/19 00:50:12;;;;;;;4.53;2.17;;;11.50;62.30;;;;;;20656114;28;20030;-78
2022/01/19 01:00:18;;;;;;;4.93;3.00;;;11.50;62.30;;;;;;20652933;28;20066;-79
2022/01/19 01:10:20;;;;;;;3.95;2.53;;;11.50;62.30;;;;;;20653410;28;20028;-78
2022/01/19 01:20:20;;;;;;;6.70;3.30;;;11.50;62.30;;;;;;20652980;28;20045;-78
2022/01/19 01:30:21;;;;;;;5.05;2.72;;;11.50;62.20;;;;;;20637410;28;20038;-78
2022/01/19 01:40:24;;;;;;;6.03;2.90;;;11.50;62.20;;;;;;20635911;28;20471;-78
2022/01/19 02:00:46;;;;;;;7.30;3.88;;;11.50;62.10;;;;;;20635776;28;20030;-78
2022/01/19 02:11:07;;;;;;;4.57;2.53;;;11.50;62.10;;;;;;20634128;28;20030;-78
2022/01/19 02:41:46;;;;;;;7.47;2.67;;;11.50;62.10;;;;;;20651122;28;20100;-79
2022/01/19 02:51:51;;;;;;;7.97;2.97;;;11.50;62.10;;;;;;20664581;28;20042;-78
2022/01/19 03:12:11;;;;;;;6.38;2.95;;;11.50;62.10;;;;;;20640985;28;20034;-78
2022/01/19 03:22:12;;;;;;;5.43;2.90;;;11.50;62.10;;;;;;20596383;28;20043;-78
2022/01/19 03:32:13;;;;;;;5.18;2.15;;;11.50;62.10;;;;;;20581201;28;20142;-79
2022/01/19 03:42:13;;;;;;;5.65;2.70;;;11.50;62.20;;;;;;20596254;28;20039;-79
2022/01/19 03:52:15;;;;;;;3.13;1.95;;;11.50;62.20;;;;;;20578078;28;20122;-78
2022/01/19 04:02:15;;;;;;;10.80;2.88;;;11.40;62.20;;;;;;20594510;28;20130;-78
2022/01/19 04:12:24;;;;;;;4.40;2.40;;;11.40;62.20;;;;;;20595233;28;20489;-80
2022/01/19 04:22:25;;;;;;;6.47;2.10;;;11.40;62.20;;;;;;20592395;28;20039;-78
2022/01/19 04:32:45;;;;;;;;;;;11.40;62.30;;;;;;20576958;28;20027;-79
2022/01/19 05:03:41;;;;;;;5.93;2.10;;;11.40;62.30;;;;;;20587218;28;20440;-78
2022/01/19 05:13:51;;;;;;;5.97;2.22;;;11.40;62.30;;;;;;20585209;28;20125;-78
2022/01/19 05:23:53;;;;;;;5.85;1.85;;;12.00;61.20;;;;;;20641181;28;20044;-78
2022/01/19 05:33:54;;;;;;;5.72;2.13;;;12.90;59.20;;;;;;20635650;28;20035;-78
2022/01/19 05:43:55;;;;;;;4.05;2.15;;;13.60;57.60;;;;;;20667591;28;20046;-77
2022/01/19 05:53:56;;;;;;;2.53;1.52;;;14.30;55.00;;;;;;20647587;28;20597;-80
2022/01/19 06:03:58;;;;;;;5.28;2.28;;;14.70;53.70;;;;;;20644345;28;20121;-78
2022/01/19 06:14:21;;;;;;;6.25;2.22;;;14.80;53.10;;;;;;20678630;28;20098;-77
2022/01/19 06:24:22;;;;;;;4.97;1.85;;;14.80;52.80;;;;;;20658988;28;20050;-79
2022/01/19 06:34:23;;;;;;;4.80;2.72;;;14.40;53.10;;;;;;20687336;28;20399;-77
2022/01/19 06:44:47;;;;;;;5.88;1.83;;;13.70;54.20;;;;;;20720056;28;20056;-80
2022/01/19 06:54:49;;;;;;;5.15;2.00;;;13.20;55.60;;;;;;20693207;28;20046;-79
2022/01/19 07:04:53;;;;;;;4.18;2.42;;;12.60;56.60;;;;;;20635802;28;20097;-77
2022/01/19 07:15:05;;;;;;;6.68;2.38;;;12.30;57.60;;;;;;20658491;28;20034;-77
2022/01/19 07:25:09;;;;;;;4.85;2.03;;;12.00;58.40;;;;;;20673186;28;20039;-79
2022/01/19 07:35:09;;;;;;;3.17;1.70;;;11.80;59.10;;;;;;20708523;28;20080;-78
2022/01/19 07:45:11;;;;;;;4.88;1.77;;;11.70;59.60;;;;;;20615399;28;20065;-79
2022/01/19 07:55:19;;;;;;;4.03;1.55;;;11.60;59.90;;;;;;20652723;28;20049;-80
2022/01/19 08:05:33;;;;;;;3.20;1.88;;;11.60;60.10;;;;;;20687780;28;20038;-80
2022/01/19 08:15:33;;;;;;;3.95;1.73;;;11.50;60.20;;;;;;20639979;28;20038;-80
2022/01/19 08:25:39;;;;;;;6.35;1.83;;;11.50;60.30;;;;;;20623130;28;20065;-79
2022/01/19 08:35:41;;;;;;;4.43;2.20;;;11.60;60.30;;;;;;20633516;28;20034;-78
2022/01/19 08:46:01;;;;;;;4.22;1.88;;;11.60;60.40;;;;;;20638400;28;20070;-78
2022/01/19 08:56:19;;;;;;;4.05;1.90;;;11.50;60.30;;;;;;20633507;28;20045;-78
2022/01/19 09:06:20;;;;;;;2.63;1.70;;;11.50;60.40;;;;;;20665656;28;20042;-79
2022/01/19 09:16:21;;;;;;;4.25;1.92;;;11.50;60.50;;;;;;20632378;28;20531;-81
2022/01/19 09:26:22;;;;;;;7.30;1.67;;;11.50;60.50;;;;;;20625057;28;20147;-79
2022/01/19 09:36:34;;;;;;;2.65;1.48;;;11.50;60.50;;;;;;20627945;28;20034;-80
2022/01/19 09:46:35;;;;;;;2.40;1.35;;;11.50;60.50;;;;;;20645142;28;20042;-79
2022/01/19 09:56:36;;;;;;;3.92;1.70;;;11.50;60.50;;;;;;20586795;28;20045;-79
2022/01/19 10:06:39;;;;;;;4.57;2.20;;;11.40;60.40;;;;;;20660468;28;20050;-80
2022/01/19 10:17:01;;;;;;;3.20;1.67;;;11.40;60.40;;;;;;20609839;28;20393;-79
2022/01/19 10:27:39;;;;;;;2.38;1.38;;;11.40;60.60;;;;;;20650095;28;20046;-79
2022/01/19 10:37:45;;;;;;;3.33;2.00;;;11.40;60.40;;;;;;20684133;28;20397;-80
2022/01/19 10:47:53;;;;;;;1.98;1.05;;;11.40;60.20;;;;;;20636496;28;20046;-80
2022/01/19 10:57:55;;;;;;;2.67;1.45;;;11.40;60.20;;;;;;20631802;28;20559;-79
2022/01/19 11:07:56;;;;;;;2.60;1.10;;;11.40;60.10;;;;;;20645845;28;20046;-78
2022/01/19 11:17:56;;;;;;;1.55;1.00;;;11.60;59.80;;;;;;20638649;28;20072;-78
2022/01/19 11:27:57;;;;;;;1.88;0.93;;;12.40;58.20;;;;;;20634390;28;20529;-78
2022/01/19 11:37:58;;;;;;;1.77;1.30;;;13.10;56.10;;;;;;20696283;28;20038;-78
2022/01/19 11:48:15;;;;;;;2.65;1.15;;;13.80;54.30;;;;;;21140613;23;20042;-82
2022/01/19 11:58:17;;;;;;;;;;;14.40;52.70;;;;;;20724080;28;20033;-81
2022/01/19 12:08:25;;;;;;;1.63;0.90;;;14.70;51.70;;;;;;20633480;28;20352;-79
2022/01/19 12:18:40;;;;;;;1.65;0.82;;;14.70;51.30;;;;;;20686348;28;20041;-80
2022/01/19 12:28:45;;;;;;;1.25;0.75;;;14.70;51.20;;;;;;20685992;28;20030;-77
2022/01/19 12:38:46;;;;;;;2.43;0.93;;;14.20;51.80;;;;;;20709610;28;20044;-76
2022/01/19 12:48:50;;;;;;;2.88;1.13;;;13.50;53.00;;;;;;20562333;28;20121;-77
2022/01/19 12:58:51;;;;;;;0.90;0.60;;;12.90;54.00;;;;;;20625520;28;20081;-80
2022/01/19 13:09:07;;;;;;;1.80;0.73;;;12.50;55.10;;;;;;20678413;28;20034;-82
2022/01/19 13:19:29;;;;;;;1.42;0.98;;;12.20;55.90;;;;;;20701513;28;20041;-81
2022/01/19 13:29:47;;;;;;;1.20;0.77;;;11.90;56.60;;;;;;20651864;28;20080;-77
2022/01/19 13:39:55;;;;;;;0.80;0.60;;;11.90;57.40;;;;;;20652879;28;20484;-82
2022/01/19 13:49:56;;;;;;;2.35;1.02;;;11.70;57.40;;;;;;20633617;28;20081;-76
2022/01/19 14:00:15;;;;;;;1.35;1.20;;;11.70;58.20;;;;;;20633706;28;20184;-79
2022/01/19 14:10:15;;;;;;;3.17;1.48;;;11.80;57.70;;;;;;20650641;28;20097;-78
2022/01/19 14:20:19;;;;;;;2.50;1.15;;;11.80;57.60;;;;;;20649707;28;20038;-78
2022/01/19 14:30:32;;;;;;;1.55;1.00;;;11.90;57.60;;;;;;20653441;28;20045;-78
2022/01/19 14:40:36;;;;;;;1.25;0.98;;;11.80;57.60;;;;;;20633548;28;20034;-78
2022/01/19 14:50:37;;;;;;;1.83;1.00;;;11.80;57.70;;;;;;20648329;28;20425;-78
2022/01/19 15:00:39;;;;;;;2.05;1.20;;;11.80;57.80;;;;;;20631246;28;20038;-80
2022/01/19 15:10:40;;;;;;;1.77;1.15;;;11.70;57.80;;;;;;20705259;28;20039;-80
2022/01/19 15:20:41;;;;;;;2.75;1.58;;;11.70;58.00;;;;;;20726929;28;20045;-83
2022/01/19 15:30:43;;;;;;;2.45;1.30;;;11.60;58.00;;;;;;20732916;28;20060;-79
2022/01/19 15:40:46;;;;;;;2.60;1.50;;;11.70;58.20;;;;;;20710479;28;20399;-82
2022/01/19 15:50:51;;;;;;;2.53;1.45;;;12.00;57.70;;;;;;20725327;28;20049;-80
2022/01/19 16:00:52;;;;;;;2.25;1.55;;;12.80;55.90;;;;;;20724842;28;20069;-82
2022/01/19 16:11:00;;;;;;;3.03;1.83;;;13.50;54.00;;;;;;20629682;28;20469;-81
2022/01/19 16:21:06;;;;;;;3.35;1.75;;;14.20;52.40;;;;;;20642621;28;20384;-82
2022/01/19 16:31:09;;;;;;;3.75;2.08;;;14.60;51.40;;;;;;20661833;28;20026;-80
2022/01/19 16:41:12;;;;;;;2.70;1.45;;;14.60;50.70;;;;;;20640863;28;20121;-79
2022/01/19 16:51:12;;;;;;;3.25;2.00;;;14.50;50.60;;;;;;20637622;28;20049;-80
2022/01/19 17:01:22;;;;;;;5.07;2.87;;;13.90;51.60;;;;;;20637738;28;20559;-75
2022/01/19 17:11:23;;;;;;;3.22;2.20;;;13.30;52.90;;;;;;20654030;28;20274;-75
2022/01/19 17:21:23;;;;;;;3.03;2.05;;;12.70;54.00;;;;;;20636581;28;20042;-77
2022/01/19 17:31:26;;;;;;;3.90;2.50;;;12.40;55.00;;;;;;20651347;28;20030;-78
2022/01/19 17:41:27;;;;;;;4.80;3.00;;;12.10;55.90;;;;;;20636658;28;20791;-78
2022/01/19 17:51:40;;;;;;;4.40;2.80;;;11.90;56.70;;;;;;20634102;28;20088;-75
2022/01/19 18:01:40;;;;;;;4.38;2.63;;;11.70;57.30;;;;;;20641881;28;20038;-77
2022/01/19 18:11:41;;;;;;;4.72;2.88;;;11.60;57.80;;;;;;20670094;28;20037;-82
2022/01/19 18:21:44;;;;;;;5.50;2.90;;;11.60;58.10;;;;;;20648978;28;20606;-82
2022/01/19 18:31:45;;;;;;;5.43;3.50;;;11.60;58.30;;;;;;20648883;28;20125;-83
2022/01/19 18:41:45;;;;;;;6.23;3.57;;;11.50;58.50;;;;;;20639380;28;20404;-89
2022/01/19 18:51:46;;;;;;;5.50;3.15;;;11.50;58.70;;;;;;20579798;28;20321;-91
2022/01/19 19:01:47;;;;;;;7.75;4.07;;;11.50;58.90;;;;;;20583828;28;20125;-88
2022/01/19 19:21:52;;;;;;;5.18;3.28;;;11.50;59.20;;;;;;20609065;28;20408;-89
2022/01/19 19:31:53;;;;;;;5.72;3.58;;;11.50;59.30;;;;;;20613824;28;20033;-91
2022/01/19 19:41:58;;;;;;;11.37;3.60;;;11.40;59.40;;;;;;20629752;28;20034;-91
2022/01/19 19:51:58;;;;;;;7.55;4.43;;;11.50;59.40;;;;;;20662360;28;20335;-90
2022/01/19 20:01:59;;;;;;;7.57;3.27;;;11.50;59.50;;;;;;20660284;28;20106;-93
2022/01/19 20:12:00;;;;;;;6.22;3.88;;;11.40;59.60;;;;;;20654695;28;20289;-90
2022/01/19 20:22:01;;;;;;;5.32;3.67;;;11.40;59.70;;;;;;20638054;28;20042;-90
2022/01/19 20:32:02;;;;;;;4.95;2.95;;;11.50;59.80;;;;;;20667831;28;20034;-90
2022/01/19 20:42:09;;;;;;;4.95;2.72;;;11.40;59.80;;;;;;20667575;28;20472;-89
2022/01/19 20:52:09;;;;;;;8.95;3.88;;;11.40;59.90;;;;;;20616328;28;20053;-88
2022/01/19 21:02:13;;;;;;;6.32;3.22;;;11.40;60.10;;;;;;20617205;28;20042;-87
2022/01/19 21:12:16;;;;;;;7.68;3.83;;;11.40;60.20;;;;;;20635385;28;20038;-91
2022/01/19 21:22:18;;;;;;;5.47;3.47;;;11.30;60.40;;;;;;20621690;28;20026;-90
2022/01/19 21:32:18;;;;;;;5.78;3.25;;;11.40;60.60;;;;;;20651984;28;20065;-92
2022/01/19 21:42:21;;;;;;;5.32;3.33;;;11.30;60.80;;;;;;20608441;28;20370;-86
2022/01/19 21:52:21;;;;;;;4.95;3.28;;;11.30;61.00;;;;;;20606732;28;20047;-86
2022/01/19 22:02:22;;;;;;;5.25;3.20;;;11.30;61.20;;;;;;20636402;28;20066;-84
2022/01/19 22:12:23;;;;;;;3.33;1.80;;;11.30;61.30;;;;;;20604977;28;20680;-86
2022/01/19 22:22:24;;;;;;;6.68;1.88;;;11.30;61.50;;;;;;20621422;28;20093;-87
2022/01/19 22:32:24;;;;;;;9.20;2.00;;;11.30;61.50;;;;;;20605482;28;20041;-85
2022/01/19 22:42:25;;;;;;;4.55;1.65;;;11.30;61.50;;;;;;20620227;28;20065;-86
2022/01/19 22:52:26;;;;;;;3.08;1.38;;;11.30;62.10;;;;;;20625587;28;20480;-85
2022/01/19 23:02:26;;;;;;;4.07;1.42;;;11.30;61.50;;;;;;20620072;28;20034;-85
2022/01/19 23:12:30;;;;;;;5.10;1.98;;;11.30;61.50;;;;;;20634030;28;20038;-85
2022/01/19 23:22:31;;;;;;;5.20;1.25;;;11.30;61.50;;;;;;20649683;28;20038;-86
2022/01/19 23:32:39;;;;;;;8.00;1.77;;;11.20;61.40;;;;;;20649266;28;20047;-85
2022/01/19 23:52:58;;;;;;;7.05;1.75;;;11.20;61.30;;;;;;20636606;28;20037;-85
